sensor_id;sensor_type;location;lat;lon;timestamp;temperature;humidity
48728;DHT22;34527;45.618;5.130;2022-11-15T00:01:47;11.90;99.90
48728;DHT22;34527;45.618;5.130;2022-11-15T00:04:13;12.00;99.90
48728;DHT22;34527;45.618;5.130;2022-11-15T00:06:39;12.00;99.90
48728;DHT22;34527;45.618;5.130;2022-11-15T00:09:05;11.90;99.90
48728;DHT22;34527;45.618;5.130;2022-11-15T00:11:31;11.90;99.90
48728;DHT22;34527;45.618;5.130;2022-11-15T00:13:57;11.90;99.90
48728;DHT22;34527;45.618;5.130;2022-11-15T00:16:24;12.00;99.90
48728;DHT22;34527;45.618;5.130;2022-11-15T00:18:50;12.00;99.90
48728;DHT22;34527;45.618;5.130;2022-11-15T00:21:17;12.00;99.90
48728;DHT22;34527;45.618;5.130;2022-11-15T00:23:43;12.00;99.90
48728;DHT22;34527;45.618;5.130;2022-11-15T00:26:13;12.00;99.90
48728;DHT22;34527;45.618;5.130;2022-11-15T00:28:41;12.00;99.90
48728;DHT22;34527;45.618;5.130;2022-11-15T00:31:10;12.00;99.90
48728;DHT22;34527;45.618;5.130;2022-11-15T00:33:37;12.00;99.90
48728;DHT22;34527;45.618;5.130;2022-11-15T00:36:06;12.00;99.90
48728;DHT22;34527;45.618;5.130;2022-11-15T00:38:33;12.00;99.90
48728;DHT22;34527;45.618;5.130;2022-11-15T00:41:00;12.00;99.90
48728;DHT22;34527;45.618;5.130;2022-11-15T00:43:26;12.00;99.90
48728;DHT22;34527;45.618;5.130;2022-11-15T00:45:52;12.00;99.90
48728;DHT22;34527;45.618;5.130;2022-11-15T00:48:18;11.90;99.90
48728;DHT22;34527;45.618;5.130;2022-11-15T00:50:44;11.90;99.90
48728;DHT22;34527;45.618;5.130;2022-11-15T00:53:10;11.90;99.90
48728;DHT22;34527;45.618;5.130;2022-11-15T00:55:36;11.90;99.90
48728;DHT22;34527;45.618;5.130;2022-11-15T00:58:02;11.90;99.90
48728;DHT22;34527;45.618;5.130;2022-11-15T01:00:28;11.90;99.90
48728;DHT22;34527;45.618;5.130;2022-11-15T01:02:54;11.90;99.90
48728;DHT22;34527;45.618;5.130;2022-11-15T01:05:20;11.80;99.90
48728;DHT22;34527;45.618;5.130;2022-11-15T01:07:46;11.80;99.90
48728;DHT22;34527;45.618;5.130;2022-11-15T01:10:12;11.70;99.90
48728;DHT22;34527;45.618;5.130;2022-11-15T01:12:38;11.80;99.90
48728;DHT22;34527;45.618;5.130;2022-11-15T01:15:05;11.80;99.90
48728;DHT22;34527;45.618;5.130;2022-11-15T01:17:31;11.80;99.90
48728;DHT22;34527;45.618;5.130;2022-11-15T01:19:57;11.80;99.90
48728;DHT22;34527;45.618;5.130;2022-11-15T01:22:23;11.80;99.90
48728;DHT22;34527;45.618;5.130;2022-11-15T01:24:52;11.80;99.90
48728;DHT22;34527;45.618;5.130;2022-11-15T01:27:18;11.80;99.90
48728;DHT22;34527;45.618;5.130;2022-11-15T01:29:44;11.70;99.90
48728;DHT22;34527;45.618;5.130;2022-11-15T01:32:10;11.70;99.90
48728;DHT22;34527;45.618;5.130;2022-11-15T01:34:35;11.70;99.90
48728;DHT22;34527;45.618;5.130;2022-11-15T01:37:01;11.70;99.90
48728;DHT22;34527;45.618;5.130;2022-11-15T01:39:27;11.70;99.90
48728;DHT22;34527;45.618;5.130;2022-11-15T01:41:53;11.70;99.90
48728;DHT22;34527;45.618;5.130;2022-11-15T01:44:39;11.70;99.90
48728;DHT22;34527;45.618;5.130;2022-11-15T01:47:27;11.70;99.90
48728;DHT22;34527;45.618;5.130;2022-11-15T01:50:04;11.70;99.90
48728;DHT22;34527;45.618;5.130;2022-11-15T01:52:31;11.60;99.90
48728;DHT22;34527;45.618;5.130;2022-11-15T01:55:06;11.70;99.90
48728;DHT22;34527;45.618;5.130;2022-11-15T01:57:33;11.70;99.90
48728;DHT22;34527;45.618;5.130;2022-11-15T02:00:00;11.70;99.90
48728;DHT22;34527;45.618;5.130;2022-11-15T02:02:27;11.70;99.90
48728;DHT22;34527;45.618;5.130;2022-11-15T02:04:53;11.70;99.90
48728;DHT22;34527;45.618;5.130;2022-11-15T02:07:20;11.70;99.90
48728;DHT22;34527;45.618;5.130;2022-11-15T02:09:47;11.70;99.90
48728;DHT22;34527;45.618;5.130;2022-11-15T02:12:15;11.70;99.90
48728;DHT22;34527;45.618;5.130;2022-11-15T02:14:52;11.60;99.90
48728;DHT22;34527;45.618;5.130;2022-11-15T02:20:36;11.70;99.90
48728;DHT22;34527;45.618;5.130;2022-11-15T02:29:05;11.70;99.90
48728;DHT22;34527;45.618;5.130;2022-11-15T02:39:59;11.80;99.90
48728;DHT22;34527;45.618;5.130;2022-11-15T02:42:28;11.70;99.90
48728;DHT22;34527;45.618;5.130;2022-11-15T02:45:21;11.70;99.90
48728;DHT22;34527;45.618;5.130;2022-11-15T02:47:51;11.70;99.90
48728;DHT22;34527;45.618;5.130;2022-11-15T02:50:21;11.70;99.90
48728;DHT22;34527;45.618;5.130;2022-11-15T02:52:49;11.70;99.90
48728;DHT22;34527;45.618;5.130;2022-11-15T03:01:02;11.70;99.90
48728;DHT22;34527;45.618;5.130;2022-11-15T03:03:46;11.70;99.90
48728;DHT22;34527;45.618;5.130;2022-11-15T03:09:34;11.80;99.90
48728;DHT22;34527;45.618;5.130;2022-11-15T03:12:08;11.70;99.90
48728;DHT22;34527;45.618;5.130;2022-11-15T03:14:44;11.80;99.90
48728;DHT22;34527;45.618;5.130;2022-11-15T03:17:21;11.80;99.90
48728;DHT22;34527;45.618;5.130;2022-11-15T03:19:57;11.80;99.90
48728;DHT22;34527;45.618;5.130;2022-11-15T03:22:27;11.90;99.90
48728;DHT22;34527;45.618;5.130;2022-11-15T03:24:57;11.80;99.90
48728;DHT22;34527;45.618;5.130;2022-11-15T03:27:27;11.90;99.90
48728;DHT22;34527;45.618;5.130;2022-11-15T03:30:00;11.80;99.90
48728;DHT22;34527;45.618;5.130;2022-11-15T03:32:29;11.90;99.90
48728;DHT22;34527;45.618;5.130;2022-11-15T03:35:12;11.90;99.90
48728;DHT22;34527;45.618;5.130;2022-11-15T03:37:59;11.90;99.90
48728;DHT22;34527;45.618;5.130;2022-11-15T03:40:34;12.00;99.90
48728;DHT22;34527;45.618;5.130;2022-11-15T03:43:20;12.00;99.90
48728;DHT22;34527;45.618;5.130;2022-11-15T03:46:19;12.00;99.90
48728;DHT22;34527;45.618;5.130;2022-11-15T03:48:52;12.00;99.90
48728;DHT22;34527;45.618;5.130;2022-11-15T03:51:19;12.10;99.90
48728;DHT22;34527;45.618;5.130;2022-11-15T03:53:45;12.00;99.90
48728;DHT22;34527;45.618;5.130;2022-11-15T03:56:11;12.10;99.90
48728;DHT22;34527;45.618;5.130;2022-11-15T03:58:37;12.10;99.90
48728;DHT22;34527;45.618;5.130;2022-11-15T04:01:03;12.10;99.90
48728;DHT22;34527;45.618;5.130;2022-11-15T04:03:29;12.10;99.90
48728;DHT22;34527;45.618;5.130;2022-11-15T04:05:55;12.00;99.90
48728;DHT22;34527;45.618;5.130;2022-11-15T04:08:21;12.00;99.90
48728;DHT22;34527;45.618;5.130;2022-11-15T04:10:49;11.90;99.90
48728;DHT22;34527;45.618;5.130;2022-11-15T04:13:15;11.90;99.90
48728;DHT22;34527;45.618;5.130;2022-11-15T04:15:41;11.90;99.90
48728;DHT22;34527;45.618;5.130;2022-11-15T04:18:07;11.90;99.90
48728;DHT22;34527;45.618;5.130;2022-11-15T04:20:32;11.80;99.90
48728;DHT22;34527;45.618;5.130;2022-11-15T04:23:19;11.80;99.90
48728;DHT22;34527;45.618;5.130;2022-11-15T04:26:16;11.80;99.90
48728;DHT22;34527;45.618;5.130;2022-11-15T04:28:42;11.70;99.90
48728;DHT22;34527;45.618;5.130;2022-11-15T04:31:27;11.60;99.90
48728;DHT22;34527;45.618;5.130;2022-11-15T04:33:53;11.70;99.90
48728;DHT22;34527;45.618;5.130;2022-11-15T04:36:20;11.70;99.90
48728;DHT22;34527;45.618;5.130;2022-11-15T04:39:05;11.80;99.90
48728;DHT22;34527;45.618;5.130;2022-11-15T04:41:31;11.70;99.90
48728;DHT22;34527;45.618;5.130;2022-11-15T04:43:56;11.70;99.90
48728;DHT22;34527;45.618;5.130;2022-11-15T04:46:23;11.60;99.90
48728;DHT22;34527;45.618;5.130;2022-11-15T04:48:50;11.60;99.90
48728;DHT22;34527;45.618;5.130;2022-11-15T04:51:16;11.60;99.90
48728;DHT22;34527;45.618;5.130;2022-11-15T04:53:42;11.60;99.90
48728;DHT22;34527;45.618;5.130;2022-11-15T04:56:08;11.60;99.90
48728;DHT22;34527;45.618;5.130;2022-11-15T04:58:34;11.60;99.90
48728;DHT22;34527;45.618;5.130;2022-11-15T05:01:14;11.50;99.90
48728;DHT22;34527;45.618;5.130;2022-11-15T05:03:43;11.50;99.90
48728;DHT22;34527;45.618;5.130;2022-11-15T05:06:29;11.60;99.90
48728;DHT22;34527;45.618;5.130;2022-11-15T05:08:55;11.50;99.90
48728;DHT22;34527;45.618;5.130;2022-11-15T05:11:21;11.50;99.90
48728;DHT22;34527;45.618;5.130;2022-11-15T05:13:47;11.50;99.90
48728;DHT22;34527;45.618;5.130;2022-11-15T05:16:14;11.50;99.90
48728;DHT22;34527;45.618;5.130;2022-11-15T05:18:40;11.50;99.90
48728;DHT22;34527;45.618;5.130;2022-11-15T05:21:12;11.50;99.90
48728;DHT22;34527;45.618;5.130;2022-11-15T05:23:39;11.40;99.90
48728;DHT22;34527;45.618;5.130;2022-11-15T05:26:07;11.40;99.90
48728;DHT22;34527;45.618;5.130;2022-11-15T05:28:33;11.40;99.90
48728;DHT22;34527;45.618;5.130;2022-11-15T05:31:04;11.40;99.90
48728;DHT22;34527;45.618;5.130;2022-11-15T05:33:31;11.40;99.90
48728;DHT22;34527;45.618;5.130;2022-11-15T05:37:01;11.50;99.90
48728;DHT22;34527;45.618;5.130;2022-11-15T05:38:55;11.40;99.90
48728;DHT22;34527;45.618;5.130;2022-11-15T05:41:30;11.40;99.90
48728;DHT22;34527;45.618;5.130;2022-11-15T05:43:58;11.40;99.90
48728;DHT22;34527;45.618;5.130;2022-11-15T05:46:25;11.40;99.90
48728;DHT22;34527;45.618;5.130;2022-11-15T05:48:52;11.40;99.90
48728;DHT22;34527;45.618;5.130;2022-11-15T05:51:20;11.40;99.90
48728;DHT22;34527;45.618;5.130;2022-11-15T05:53:47;11.30;99.90
48728;DHT22;34527;45.618;5.130;2022-11-15T05:56:14;11.30;99.90
48728;DHT22;34527;45.618;5.130;2022-11-15T05:58:40;11.40;99.90
48728;DHT22;34527;45.618;5.130;2022-11-15T06:01:06;11.40;99.90
48728;DHT22;34527;45.618;5.130;2022-11-15T06:03:32;11.40;99.90
48728;DHT22;34527;45.618;5.130;2022-11-15T06:05:58;11.40;99.90
48728;DHT22;34527;45.618;5.130;2022-11-15T06:08:24;11.30;99.90
48728;DHT22;34527;45.618;5.130;2022-11-15T06:10:50;11.30;99.90
48728;DHT22;34527;45.618;5.130;2022-11-15T06:13:15;11.30;99.90
48728;DHT22;34527;45.618;5.130;2022-11-15T06:15:41;11.30;99.90
48728;DHT22;34527;45.618;5.130;2022-11-15T06:18:07;11.30;99.90
48728;DHT22;34527;45.618;5.130;2022-11-15T06:20:33;11.30;99.90
48728;DHT22;34527;45.618;5.130;2022-11-15T06:23:03;11.30;99.90
48728;DHT22;34527;45.618;5.130;2022-11-15T06:25:30;11.20;99.90
48728;DHT22;34527;45.618;5.130;2022-11-15T06:27:59;11.30;99.90
48728;DHT22;34527;45.618;5.130;2022-11-15T06:30:26;11.20;99.90
48728;DHT22;34527;45.618;5.130;2022-11-15T06:32:58;11.20;99.90
48728;DHT22;34527;45.618;5.130;2022-11-15T06:35:25;11.20;99.90
48728;DHT22;34527;45.618;5.130;2022-11-15T06:37:50;11.30;99.90
48728;DHT22;34527;45.618;5.130;2022-11-15T06:40:16;11.30;99.90
48728;DHT22;34527;45.618;5.130;2022-11-15T06:42:42;11.30;99.90
48728;DHT22;34527;45.618;5.130;2022-11-15T06:45:08;11.30;99.90
48728;DHT22;34527;45.618;5.130;2022-11-15T06:47:34;11.30;99.90
48728;DHT22;34527;45.618;5.130;2022-11-15T06:50:00;11.30;99.90
48728;DHT22;34527;45.618;5.130;2022-11-15T06:52:26;11.30;99.90
48728;DHT22;34527;45.618;5.130;2022-11-15T06:54:52;11.30;99.90
48728;DHT22;34527;45.618;5.130;2022-11-15T06:57:18;11.30;99.90
48728;DHT22;34527;45.618;5.130;2022-11-15T06:59:44;11.30;99.90
48728;DHT22;34527;45.618;5.130;2022-11-15T07:02:13;11.30;99.90
48728;DHT22;34527;45.618;5.130;2022-11-15T07:04:39;11.40;99.90
48728;DHT22;34527;45.618;5.130;2022-11-15T07:07:05;11.40;99.90
48728;DHT22;34527;45.618;5.130;2022-11-15T07:09:31;11.40;99.90
48728;DHT22;34527;45.618;5.130;2022-11-15T07:11:57;11.40;99.90
48728;DHT22;34527;45.618;5.130;2022-11-15T07:14:24;11.50;99.90
48728;DHT22;34527;45.618;5.130;2022-11-15T07:16:52;11.40;99.90
48728;DHT22;34527;45.618;5.130;2022-11-15T07:19:19;11.50;99.90
48728;DHT22;34527;45.618;5.130;2022-11-15T07:21:46;11.50;99.90
48728;DHT22;34527;45.618;5.130;2022-11-15T07:24:13;11.60;99.90
48728;DHT22;34527;45.618;5.130;2022-11-15T07:26:39;11.50;99.90
48728;DHT22;34527;45.618;5.130;2022-11-15T07:29:05;11.60;99.90
48728;DHT22;34527;45.618;5.130;2022-11-15T07:31:31;11.60;99.90
48728;DHT22;34527;45.618;5.130;2022-11-15T07:33:57;11.70;99.90
48728;DHT22;34527;45.618;5.130;2022-11-15T07:36:23;11.70;99.90
48728;DHT22;34527;45.618;5.130;2022-11-15T07:38:49;11.70;99.90
48728;DHT22;34527;45.618;5.130;2022-11-15T07:41:15;11.70;99.90
48728;DHT22;34527;45.618;5.130;2022-11-15T07:43:41;11.70;99.90
48728;DHT22;34527;45.618;5.130;2022-11-15T07:46:08;11.70;99.90
48728;DHT22;34527;45.618;5.130;2022-11-15T07:48:38;11.70;99.90
48728;DHT22;34527;45.618;5.130;2022-11-15T07:51:06;11.80;99.90
48728;DHT22;34527;45.618;5.130;2022-11-15T07:53:32;11.80;99.90
48728;DHT22;34527;45.618;5.130;2022-11-15T07:55:58;11.80;99.90
48728;DHT22;34527;45.618;5.130;2022-11-15T07:58:24;11.90;99.90
48728;DHT22;34527;45.618;5.130;2022-11-15T08:00:49;11.90;99.90
48728;DHT22;34527;45.618;5.130;2022-11-15T08:03:17;11.90;99.90
48728;DHT22;34527;45.618;5.130;2022-11-15T08:05:49;11.90;99.90
48728;DHT22;34527;45.618;5.130;2022-11-15T08:08:16;11.90;99.90
48728;DHT22;34527;45.618;5.130;2022-11-15T08:10:43;12.00;99.90
48728;DHT22;34527;45.618;5.130;2022-11-15T08:13:11;12.00;99.90
48728;DHT22;34527;45.618;5.130;2022-11-15T08:15:37;12.10;99.90
48728;DHT22;34527;45.618;5.130;2022-11-15T08:18:12;12.10;99.90
48728;DHT22;34527;45.618;5.130;2022-11-15T08:20:38;12.10;99.90
48728;DHT22;34527;45.618;5.130;2022-11-15T08:23:05;12.20;99.90
48728;DHT22;34527;45.618;5.130;2022-11-15T08:25:32;12.20;99.90
48728;DHT22;34527;45.618;5.130;2022-11-15T08:28:00;12.30;99.90
48728;DHT22;34527;45.618;5.130;2022-11-15T08:30:27;12.30;99.90
48728;DHT22;34527;45.618;5.130;2022-11-15T08:32:55;12.40;99.90
48728;DHT22;34527;45.618;5.130;2022-11-15T08:35:21;12.40;99.90
48728;DHT22;34527;45.618;5.130;2022-11-15T08:37:47;12.50;99.90
48728;DHT22;34527;45.618;5.130;2022-11-15T08:40:13;12.50;99.90
48728;DHT22;34527;45.618;5.130;2022-11-15T08:42:40;12.50;99.90
48728;DHT22;34527;45.618;5.130;2022-11-15T08:45:07;12.60;99.90
48728;DHT22;34527;45.618;5.130;2022-11-15T08:47:34;12.60;99.90
48728;DHT22;34527;45.618;5.130;2022-11-15T08:50:00;12.70;99.90
48728;DHT22;34527;45.618;5.130;2022-11-15T08:52:26;12.70;99.90
48728;DHT22;34527;45.618;5.130;2022-11-15T08:54:52;12.80;99.90
48728;DHT22;34527;45.618;5.130;2022-11-15T08:57:18;12.90;99.90
48728;DHT22;34527;45.618;5.130;2022-11-15T08:59:44;12.90;99.90
48728;DHT22;34527;45.618;5.130;2022-11-15T09:02:12;13.00;99.90
48728;DHT22;34527;45.618;5.130;2022-11-15T09:04:43;13.10;99.90
48728;DHT22;34527;45.618;5.130;2022-11-15T09:07:10;13.10;99.90
48728;DHT22;34527;45.618;5.130;2022-11-15T09:09:37;13.20;99.90
48728;DHT22;34527;45.618;5.130;2022-11-15T09:12:04;13.20;99.90
48728;DHT22;34527;45.618;5.130;2022-11-15T09:14:30;13.20;99.90
48728;DHT22;34527;45.618;5.130;2022-11-15T09:16:56;13.30;99.90
48728;DHT22;34527;45.618;5.130;2022-11-15T09:19:22;13.30;99.90
48728;DHT22;34527;45.618;5.130;2022-11-15T09:21:48;13.30;99.90
48728;DHT22;34527;45.618;5.130;2022-11-15T09:24:14;13.40;99.90
48728;DHT22;34527;45.618;5.130;2022-11-15T09:26:40;13.40;99.90
48728;DHT22;34527;45.618;5.130;2022-11-15T09:29:06;13.50;99.90
48728;DHT22;34527;45.618;5.130;2022-11-15T09:31:32;13.50;99.90
48728;DHT22;34527;45.618;5.130;2022-11-15T09:33:58;13.50;99.90
48728;DHT22;34527;45.618;5.130;2022-11-15T09:36:25;13.60;99.90
48728;DHT22;34527;45.618;5.130;2022-11-15T09:38:51;13.60;99.90
48728;DHT22;34527;45.618;5.130;2022-11-15T09:49:35;13.60;99.90
48728;DHT22;34527;45.618;5.130;2022-11-15T09:52:02;13.70;99.90
48728;DHT22;34527;45.618;5.130;2022-11-15T09:54:29;13.70;99.90
48728;DHT22;34527;45.618;5.130;2022-11-15T09:59:45;13.80;99.90
48728;DHT22;34527;45.618;5.130;2022-11-15T10:04:44;13.90;99.90
48728;DHT22;34527;45.618;5.130;2022-11-15T10:07:23;13.90;99.90
48728;DHT22;34527;45.618;5.130;2022-11-15T10:10:11;13.90;99.90
48728;DHT22;34527;45.618;5.130;2022-11-15T10:12:45;13.90;99.90
48728;DHT22;34527;45.618;5.130;2022-11-15T10:15:15;13.90;99.90
48728;DHT22;34527;45.618;5.130;2022-11-15T10:20:29;14.00;99.90
48728;DHT22;34527;45.618;5.130;2022-11-15T10:23:05;13.90;99.90
48728;DHT22;34527;45.618;5.130;2022-11-15T10:25:33;14.00;99.90
48728;DHT22;34527;45.618;5.130;2022-11-15T10:30:55;14.00;99.90
48728;DHT22;34527;45.618;5.130;2022-11-15T10:44:16;14.10;99.90
48728;DHT22;34527;45.618;5.130;2022-11-15T10:49:23;14.10;99.90
48728;DHT22;34527;45.618;5.130;2022-11-15T10:51:54;14.10;99.90
48728;DHT22;34527;45.618;5.130;2022-11-15T10:57:23;14.20;99.90
48728;DHT22;34527;45.618;5.130;2022-11-15T11:00:26;14.10;99.90
48728;DHT22;34527;45.618;5.130;2022-11-15T11:02:57;14.20;99.90
48728;DHT22;34527;45.618;5.130;2022-11-15T11:05:35;14.20;99.90
48728;DHT22;34527;45.618;5.130;2022-11-15T11:08:04;14.20;99.90
48728;DHT22;34527;45.618;5.130;2022-11-15T11:10:31;14.20;99.90
48728;DHT22;34527;45.618;5.130;2022-11-15T11:21:47;14.30;99.90
48728;DHT22;34527;45.618;5.130;2022-11-15T11:30:02;14.30;99.90
48728;DHT22;34527;45.618;5.130;2022-11-15T11:35:29;14.40;99.90
48728;DHT22;34527;45.618;5.130;2022-11-15T11:38:17;14.50;99.90
48728;DHT22;34527;45.618;5.130;2022-11-15T11:41:18;14.50;99.90
48728;DHT22;34527;45.618;5.130;2022-11-15T11:44:02;14.60;99.90
48728;DHT22;34527;45.618;5.130;2022-11-15T11:46:47;14.60;99.90
48728;DHT22;34527;45.618;5.130;2022-11-15T11:49:23;14.60;99.90
48728;DHT22;34527;45.618;5.130;2022-11-15T11:57:33;14.60;99.90
48728;DHT22;34527;45.618;5.130;2022-11-15T12:00:19;14.60;99.90
48728;DHT22;34527;45.618;5.130;2022-11-15T12:05:40;14.60;99.90
48728;DHT22;34527;45.618;5.130;2022-11-15T12:13:35;14.70;99.90
48728;DHT22;34527;45.618;5.130;2022-11-15T12:16:16;14.70;99.90
48728;DHT22;34527;45.618;5.130;2022-11-15T12:18:51;14.70;99.90
48728;DHT22;34527;45.618;5.130;2022-11-15T12:23:51;14.80;99.90
48728;DHT22;34527;45.618;5.130;2022-11-15T12:26:29;14.80;99.90
48728;DHT22;34527;45.618;5.130;2022-11-15T12:29:03;14.80;99.90
48728;DHT22;34527;45.618;5.130;2022-11-15T12:31:40;14.80;99.90
48728;DHT22;34527;45.618;5.130;2022-11-15T12:36:49;14.90;99.90
48728;DHT22;34527;45.618;5.130;2022-11-15T12:39:16;14.90;99.90
48728;DHT22;34527;45.618;5.130;2022-11-15T12:41:45;14.90;99.90
48728;DHT22;34527;45.618;5.130;2022-11-15T12:52:05;14.90;99.90
48728;DHT22;34527;45.618;5.130;2022-11-15T13:02:44;14.90;99.90
48728;DHT22;34527;45.618;5.130;2022-11-15T13:17:56;14.80;99.90
48728;DHT22;34527;45.618;5.130;2022-11-15T13:20:29;14.80;99.90
48728;DHT22;34527;45.618;5.130;2022-11-15T13:28:24;14.80;99.90
48728;DHT22;34527;45.618;5.130;2022-11-15T13:30:58;14.90;99.90
48728;DHT22;34527;45.618;5.130;2022-11-15T13:33:35;14.90;99.90
48728;DHT22;34527;45.618;5.130;2022-11-15T13:36:05;14.90;99.90
48728;DHT22;34527;45.618;5.130;2022-11-15T13:38:34;14.90;99.90
48728;DHT22;34527;45.618;5.130;2022-11-15T13:41:14;14.90;99.90
48728;DHT22;34527;45.618;5.130;2022-11-15T13:43:43;14.90;99.90
48728;DHT22;34527;45.618;5.130;2022-11-15T13:46:19;14.90;99.90
48728;DHT22;34527;45.618;5.130;2022-11-15T13:48:48;14.90;99.90
48728;DHT22;34527;45.618;5.130;2022-11-15T13:51:54;14.90;99.90
48728;DHT22;34527;45.618;5.130;2022-11-15T13:57:12;15.00;99.90
48728;DHT22;34527;45.618;5.130;2022-11-15T14:00:03;15.00;99.90
48728;DHT22;34527;45.618;5.130;2022-11-15T14:02:32;15.00;99.90
48728;DHT22;34527;45.618;5.130;2022-11-15T14:05:17;15.00;99.90
48728;DHT22;34527;45.618;5.130;2022-11-15T14:07:55;15.00;99.90
48728;DHT22;34527;45.618;5.130;2022-11-15T14:10:28;15.10;99.90
48728;DHT22;34527;45.618;5.130;2022-11-15T14:12:55;15.00;99.90
48728;DHT22;34527;45.618;5.130;2022-11-15T14:15:29;15.00;99.90
48728;DHT22;34527;45.618;5.130;2022-11-15T14:17:56;15.00;99.90
48728;DHT22;34527;45.618;5.130;2022-11-15T14:20:34;15.00;99.90
48728;DHT22;34527;45.618;5.130;2022-11-15T14:23:03;15.10;99.90
48728;DHT22;34527;45.618;5.130;2022-11-15T14:25:34;15.00;99.90
48728;DHT22;34527;45.618;5.130;2022-11-15T14:30:54;15.00;99.90
48728;DHT22;34527;45.618;5.130;2022-11-15T14:33:33;15.00;99.90
48728;DHT22;34527;45.618;5.130;2022-11-15T14:36:06;15.00;99.90
48728;DHT22;34527;45.618;5.130;2022-11-15T14:38:32;14.90;99.90
48728;DHT22;34527;45.618;5.130;2022-11-15T14:40:58;14.80;99.90
48728;DHT22;34527;45.618;5.130;2022-11-15T14:43:24;14.80;99.90
48728;DHT22;34527;45.618;5.130;2022-11-15T14:45:50;14.80;99.90
48728;DHT22;34527;45.618;5.130;2022-11-15T14:48:16;14.80;99.90
48728;DHT22;34527;45.618;5.130;2022-11-15T14:50:42;14.70;99.90
48728;DHT22;34527;45.618;5.130;2022-11-15T14:53:12;14.70;99.90
48728;DHT22;34527;45.618;5.130;2022-11-15T14:55:39;14.70;99.90
48728;DHT22;34527;45.618;5.130;2022-11-15T14:58:06;14.60;99.90
48728;DHT22;34527;45.618;5.130;2022-11-15T15:00:37;14.60;99.90
48728;DHT22;34527;45.618;5.130;2022-11-15T15:03:05;14.70;99.90
48728;DHT22;34527;45.618;5.130;2022-11-15T15:05:35;14.60;99.90
48728;DHT22;34527;45.618;5.130;2022-11-15T15:08:01;14.60;99.90
48728;DHT22;34527;45.618;5.130;2022-11-15T15:10:39;14.60;99.90
48728;DHT22;34527;45.618;5.130;2022-11-15T15:13:08;14.60;99.90
48728;DHT22;34527;45.618;5.130;2022-11-15T15:15:37;14.60;99.90
48728;DHT22;34527;45.618;5.130;2022-11-15T15:18:04;14.70;99.90
48728;DHT22;34527;45.618;5.130;2022-11-15T15:20:31;14.70;99.90
48728;DHT22;34527;45.618;5.130;2022-11-15T15:22:57;14.70;99.90
48728;DHT22;34527;45.618;5.130;2022-11-15T15:25:30;14.70;99.90
48728;DHT22;34527;45.618;5.130;2022-11-15T15:27:57;14.70;99.90
48728;DHT22;34527;45.618;5.130;2022-11-15T15:30:25;14.60;99.90
48728;DHT22;34527;45.618;5.130;2022-11-15T15:32:51;14.60;99.90
48728;DHT22;34527;45.618;5.130;2022-11-15T15:35:18;14.50;99.90
48728;DHT22;34527;45.618;5.130;2022-11-15T15:37:46;14.60;99.90
48728;DHT22;34527;45.618;5.130;2022-11-15T15:40:17;14.50;99.90
48728;DHT22;34527;45.618;5.130;2022-11-15T15:42:44;14.50;99.90
48728;DHT22;34527;45.618;5.130;2022-11-15T15:45:10;14.40;99.90
48728;DHT22;34527;45.618;5.130;2022-11-15T15:47:36;14.40;99.90
48728;DHT22;34527;45.618;5.130;2022-11-15T15:50:49;14.40;99.90
48728;DHT22;34527;45.618;5.130;2022-11-15T15:52:51;14.30;99.90
48728;DHT22;34527;45.618;5.130;2022-11-15T15:55:18;14.20;99.90
48728;DHT22;34527;45.618;5.130;2022-11-15T15:57:43;14.20;99.90
48728;DHT22;34527;45.618;5.130;2022-11-15T16:00:10;14.10;99.90
48728;DHT22;34527;45.618;5.130;2022-11-15T16:02:36;14.10;99.90
48728;DHT22;34527;45.618;5.130;2022-11-15T16:05:02;14.00;99.90
48728;DHT22;34527;45.618;5.130;2022-11-15T16:07:28;14.00;99.90
48728;DHT22;34527;45.618;5.130;2022-11-15T16:09:55;14.00;99.90
48728;DHT22;34527;45.618;5.130;2022-11-15T16:12:28;13.90;99.90
48728;DHT22;34527;45.618;5.130;2022-11-15T16:14:54;13.90;99.90
48728;DHT22;34527;45.618;5.130;2022-11-15T16:17:26;13.90;99.90
48728;DHT22;34527;45.618;5.130;2022-11-15T16:19:54;13.80;99.90
48728;DHT22;34527;45.618;5.130;2022-11-15T16:22:20;13.90;99.90
48728;DHT22;34527;45.618;5.130;2022-11-15T16:24:46;13.90;99.90
48728;DHT22;34527;45.618;5.130;2022-11-15T16:27:19;13.90;99.90
48728;DHT22;34527;45.618;5.130;2022-11-15T16:29:46;13.90;99.90
48728;DHT22;34527;45.618;5.130;2022-11-15T16:32:13;13.90;99.90
48728;DHT22;34527;45.618;5.130;2022-11-15T16:34:39;13.90;99.90
48728;DHT22;34527;45.618;5.130;2022-11-15T16:37:05;13.90;99.90
48728;DHT22;34527;45.618;5.130;2022-11-15T16:39:32;13.80;99.90
48728;DHT22;34527;45.618;5.130;2022-11-15T16:41:58;13.80;99.90
48728;DHT22;34527;45.618;5.130;2022-11-15T16:44:25;13.90;99.90
48728;DHT22;34527;45.618;5.130;2022-11-15T16:46:51;13.80;99.90
48728;DHT22;34527;45.618;5.130;2022-11-15T16:49:20;13.80;99.90
48728;DHT22;34527;45.618;5.130;2022-11-15T16:51:48;13.90;99.90
48728;DHT22;34527;45.618;5.130;2022-11-15T16:54:14;13.80;99.90
48728;DHT22;34527;45.618;5.130;2022-11-15T16:56:41;13.80;99.90
48728;DHT22;34527;45.618;5.130;2022-11-15T16:59:10;13.80;99.90
48728;DHT22;34527;45.618;5.130;2022-11-15T17:01:39;13.70;99.90
48728;DHT22;34527;45.618;5.130;2022-11-15T17:04:12;13.70;99.90
48728;DHT22;34527;45.618;5.130;2022-11-15T17:06:43;13.70;99.90
48728;DHT22;34527;45.618;5.130;2022-11-15T17:09:17;13.70;99.90
48728;DHT22;34527;45.618;5.130;2022-11-15T17:11:43;13.70;99.90
48728;DHT22;34527;45.618;5.130;2022-11-15T17:14:10;13.70;99.90
48728;DHT22;34527;45.618;5.130;2022-11-15T17:16:37;13.70;99.90
48728;DHT22;34527;45.618;5.130;2022-11-15T17:19:14;13.70;99.90
48728;DHT22;34527;45.618;5.130;2022-11-15T17:21:41;13.70;99.90
48728;DHT22;34527;45.618;5.130;2022-11-15T17:24:07;13.70;99.90
48728;DHT22;34527;45.618;5.130;2022-11-15T17:26:34;13.80;99.90
48728;DHT22;34527;45.618;5.130;2022-11-15T17:29:00;13.70;99.90
48728;DHT22;34527;45.618;5.130;2022-11-15T17:31:26;13.80;99.90
48728;DHT22;34527;45.618;5.130;2022-11-15T17:33:52;13.80;99.90
48728;DHT22;34527;45.618;5.130;2022-11-15T17:36:18;13.80;99.90
48728;DHT22;34527;45.618;5.130;2022-11-15T17:38:44;13.80;99.90
48728;DHT22;34527;45.618;5.130;2022-11-15T17:41:15;13.80;99.90
48728;DHT22;34527;45.618;5.130;2022-11-15T17:43:42;13.80;99.90
48728;DHT22;34527;45.618;5.130;2022-11-15T17:46:11;13.80;99.90
48728;DHT22;34527;45.618;5.130;2022-11-15T17:48:37;13.80;99.90
48728;DHT22;34527;45.618;5.130;2022-11-15T17:51:05;13.80;99.90
48728;DHT22;34527;45.618;5.130;2022-11-15T17:53:33;13.80;99.90
48728;DHT22;34527;45.618;5.130;2022-11-15T17:56:01;13.80;99.90
48728;DHT22;34527;45.618;5.130;2022-11-15T17:58:29;13.90;99.90
48728;DHT22;34527;45.618;5.130;2022-11-15T18:00:55;13.90;99.90
48728;DHT22;34527;45.618;5.130;2022-11-15T18:03:29;14.00;99.90